Time;durP1;ratioP1;P1;durP2;ratioP2;P2;SDS_P1;SDS_P2;PMS_P1;PMS_P2;Temp;Humidity;BMP_temperature;BMP_pressure;BME280_temperature;BME280_humidity;BME280_pressure;Samples;Min_cycle;Max_cycle;Signal;HPM_P1;HPM_P2
2021/03/14 00:02:17;;;;;;;11.93;2.65;;;6.30;90.90;;;;;;4993744;28;20023;-76
2021/03/14 00:04:43;;;;;;;9.43;3.95;;;6.20;91.00;;;;;;4994598;28;20025;-73
2021/03/14 00:07:09;;;;;;;13.07;4.05;;;6.20;91.00;;;;;;4992939;28;20022;-73
2021/03/14 00:09:34;;;;;;;10.07;2.95;;;6.20;90.90;;;;;;4992709;28;20030;-73
2021/03/14 00:12:00;;;;;;;7.60;2.13;;;6.20;91.00;;;;;;4994543;28;20031;-72
2021/03/14 00:14:26;;;;;;;10.65;2.10;;;6.10;90.90;;;;;;4993909;28;20380;-73
2021/03/14 00:16:52;;;;;;;11.82;3.63;;;6.10;90.90;;;;;;4992464;28;20038;-74
2021/03/14 00:19:19;;;;;;;8.00;2.40;;;6.10;90.90;;;;;;4994228;28;20467;-74
2021/03/14 00:21:45;;;;;;;11.77;2.53;;;6.10;91.00;;;;;;4993011;28;20026;-74
2021/03/14 00:24:11;;;;;;;11.88;2.30;;;6.10;91.00;;;;;;4992221;28;20029;-74
2021/03/14 00:26:37;;;;;;;8.63;2.40;;;6.10;90.90;;;;;;4993798;28;20026;-74
2021/03/14 00:29:05;;;;;;;9.60;2.58;;;6.10;91.00;;;;;;4994262;28;20027;-74
2021/03/14 00:31:31;;;;;;;9.02;3.95;;;6.20;91.00;;;;;;4993183;28;20098;-74
2021/03/14 00:33:56;;;;;;;16.35;2.97;;;6.20;90.90;;;;;;4994091;28;20141;-74
2021/03/14 00:36:22;;;;;;;10.95;2.90;;;6.20;90.80;;;;;;4993746;28;20029;-74
2021/03/14 00:38:47;;;;;;;12.32;3.85;;;6.30;90.70;;;;;;4993513;28;20029;-74
2021/03/14 00:41:13;;;;;;;8.48;2.72;;;6.30;90.70;;;;;;4993840;28;20026;-74
2021/03/14 00:43:39;;;;;;;9.43;2.28;;;6.30;90.60;;;;;;4992586;28;20486;-74
2021/03/14 00:46:04;;;;;;;10.48;2.58;;;6.30;90.60;;;;;;4992439;28;20036;-74
2021/03/14 00:48:30;;;;;;;13.70;2.70;;;6.30;90.60;;;;;;4993611;28;20026;-74
2021/03/14 00:50:55;;;;;;;12.18;2.30;;;6.30;90.60;;;;;;4993111;28;20053;-75
2021/03/14 00:53:21;;;;;;;13.68;2.58;;;6.40;90.60;;;;;;4993110;28;20035;-74
2021/03/14 00:55:47;;;;;;;11.85;2.47;;;6.40;90.60;;;;;;4993773;28;20031;-75
2021/03/14 00:58:13;;;;;;;13.07;3.42;;;6.40;90.50;;;;;;4991507;28;20033;-75
2021/03/14 01:00:38;;;;;;;8.45;2.30;;;6.40;90.50;;;;;;4992409;28;20046;-73
2021/03/14 01:03:04;;;;;;;14.50;3.33;;;6.50;90.30;;;;;;4993493;28;20069;-74
2021/03/14 01:05:30;;;;;;;13.23;7.72;;;6.60;90.20;;;;;;4992531;28;20036;-75
2021/03/14 01:07:55;;;;;;;11.05;2.70;;;6.60;90.10;;;;;;4993459;28;20508;-75
2021/03/14 01:10:21;;;;;;;11.75;2.80;;;6.60;90.00;;;;;;4993257;28;20093;-74
2021/03/14 01:12:46;;;;;;;11.27;2.63;;;6.70;89.90;;;;;;4991356;28;20423;-75
2021/03/14 01:15:14;;;;;;;14.35;2.80;;;6.70;89.70;;;;;;4993161;28;20027;-74
2021/03/14 01:17:41;;;;;;;12.75;3.28;;;6.70;89.70;;;;;;4992026;28;20137;-74
2021/03/14 01:20:10;;;;;;;16.10;2.78;;;6.80;89.60;;;;;;4991506;28;20053;-75
2021/03/14 01:22:36;;;;;;;13.70;2.90;;;6.80;89.70;;;;;;4991889;28;20021;-75
2021/03/14 01:25:03;;;;;;;8.10;2.38;;;6.80;89.50;;;;;;4993178;28;20030;-74
2021/03/14 01:27:29;;;;;;;11.90;2.88;;;6.80;89.40;;;;;;4992227;28;20104;-73
2021/03/14 01:29:54;;;;;;;11.18;2.53;;;6.80;89.20;;;;;;4993270;28;20471;-74
2021/03/14 01:32:20;;;;;;;10.43;2.50;;;6.80;89.20;;;;;;4991551;28;20026;-74
2021/03/14 01:34:48;;;;;;;8.77;2.40;;;6.90;89.40;;;;;;4992401;28;20046;-74
2021/03/14 01:37:14;;;;;;;12.25;2.50;;;6.90;89.90;;;;;;4992610;28;20475;-74
2021/03/14 01:39:40;;;;;;;13.23;2.25;;;6.90;89.30;;;;;;4991881;28;20801;-74
2021/03/14 01:42:05;;;;;;;12.57;3.03;;;6.90;89.40;;;;;;4992468;28;20034;-74
2021/03/14 01:44:31;;;;;;;6.13;2.10;;;6.90;89.20;;;;;;4992509;28;20121;-73
2021/03/14 01:46:57;;;;;;;13.20;2.45;;;6.90;89.20;;;;;;4992947;28;20446;-73
2021/03/14 01:49:23;;;;;;;8.07;2.20;;;6.80;89.40;;;;;;4992177;28;20439;-74
2021/03/14 01:51:48;;;;;;;13.82;3.65;;;6.80;89.50;;;;;;4992800;28;20382;-74
2021/03/14 01:54:14;;;;;;;13.02;3.45;;;6.90;89.70;;;;;;4990891;28;20038;-74
2021/03/14 01:56:40;;;;;;;14.60;2.83;;;6.80;89.70;;;;;;4991531;28;20422;-74
2021/03/14 01:59:06;;;;;;;11.73;3.00;;;6.80;89.60;;;;;;4992939;28;20391;-74
2021/03/14 02:01:32;;;;;;;9.98;2.40;;;6.80;89.70;;;;;;4990530;28;20019;-74
2021/03/14 02:03:58;;;;;;;13.80;2.45;;;6.90;89.90;;;;;;4992882;28;20475;-75
2021/03/14 02:06:23;;;;;;;11.82;2.53;;;6.90;89.90;;;;;;4991222;28;20114;-75
2021/03/14 02:08:49;;;;;;;9.38;2.47;;;6.80;89.70;;;;;;4992057;28;20498;-74
2021/03/14 02:11:14;;;;;;;13.98;2.83;;;6.80;89.90;;;;;;4992520;28;20026;-74
2021/03/14 02:13:44;;;;;;;11.57;3.63;;;6.90;89.90;;;;;;4992545;28;20038;-74
2021/03/14 02:16:14;;;;;;;9.27;2.80;;;6.80;89.80;;;;;;4991789;28;20133;-74
2021/03/14 02:18:43;;;;;;;8.38;2.67;;;6.80;89.90;;;;;;4991585;28;20133;-75
2021/03/14 02:21:09;;;;;;;8.55;2.50;;;6.80;89.90;;;;;;4991188;28;20018;-73
2021/03/14 02:23:53;;;;;;;13.75;2.60;;;6.80;89.90;;;;;;4992065;28;20479;-75
2021/03/14 02:26:24;;;;;;;11.35;2.38;;;6.90;89.90;;;;;;4990984;28;20030;-74
2021/03/14 02:28:52;;;;;;;18.67;3.13;;;6.90;89.70;;;;;;4991573;28;20022;-74
2021/03/14 02:31:20;;;;;;;9.30;2.30;;;6.90;89.60;;;;;;4991595;28;20029;-75
2021/03/14 02:33:48;;;;;;;10.32;2.88;;;6.90;89.60;;;;;;4992537;28;20088;-74
2021/03/14 02:36:14;;;;;;;12.02;3.42;;;6.90;90.10;;;;;;4991780;28;20498;-74
2021/03/14 02:38:42;;;;;;;9.27;2.92;;;6.90;89.70;;;;;;4992608;28;20046;-75
2021/03/14 02:41:09;;;;;;;9.50;2.72;;;6.80;90.00;;;;;;4992579;28;20034;-74
2021/03/14 02:43:36;;;;;;;17.40;3.35;;;6.80;90.10;;;;;;4990467;28;20077;-75
2021/03/14 02:46:03;;;;;;;8.63;2.25;;;6.70;90.00;;;;;;4992401;28;20503;-74
2021/03/14 02:48:29;;;;;;;9.77;2.30;;;6.70;90.10;;;;;;4992133;28;20175;-73
2021/03/14 02:50:58;;;;;;;12.23;2.78;;;6.70;90.20;;;;;;4993435;28;20109;-74
2021/03/14 02:53:25;;;;;;;13.43;2.20;;;6.70;90.20;;;;;;4995422;28;20026;-74
2021/03/14 02:55:53;;;;;;;10.48;2.58;;;6.80;90.30;;;;;;4996021;28;20022;-74
2021/03/14 02:58:20;;;;;;;13.13;3.25;;;6.80;90.20;;;;;;4993930;28;20029;-74
2021/03/14 03:00:47;;;;;;;12.98;2.72;;;6.80;90.20;;;;;;4995781;28;20030;-74
2021/03/14 03:03:13;;;;;;;14.35;3.97;;;6.70;90.20;;;;;;4994030;28;20014;-74
2021/03/14 03:05:40;;;;;;;11.38;2.20;;;6.60;90.20;;;;;;4995057;28;20092;-74
2021/03/14 03:08:06;;;;;;;13.95;2.80;;;6.60;90.30;;;;;;4995986;28;20460;-74
2021/03/14 03:10:37;;;;;;;14.00;2.95;;;6.60;90.30;;;;;;4995555;28;20100;-74
2021/03/14 03:13:04;;;;;;;10.65;2.70;;;6.60;90.30;;;;;;4994979;28;20044;-74
2021/03/14 03:15:31;;;;;;;9.88;2.67;;;6.60;90.30;;;;;;4995489;28;20022;-74
2021/03/14 03:17:57;;;;;;;8.75;2.97;;;6.50;90.30;;;;;;4994266;28;20061;-74
2021/03/14 03:20:25;;;;;;;16.35;3.90;;;6.50;90.30;;;;;;4994754;28;20037;-74
2021/03/14 03:22:51;;;;;;;10.52;2.72;;;6.50;90.30;;;;;;4994259;28;20046;-74
2021/03/14 03:25:17;;;;;;;14.48;3.13;;;6.50;90.30;;;;;;4994063;28;20034;-74
2021/03/14 03:27:42;;;;;;;11.77;2.60;;;6.50;90.30;;;;;;4993602;28;20026;-73
2021/03/14 03:30:10;;;;;;;11.98;3.28;;;6.50;90.20;;;;;;4995441;28;20026;-74
2021/03/14 03:32:37;;;;;;;14.27;3.53;;;6.50;90.20;;;;;;4993351;28;20030;-74
2021/03/14 03:35:08;;;;;;;13.35;3.08;;;6.40;90.20;;;;;;4995203;28;20035;-73
2021/03/14 03:37:34;;;;;;;14.13;2.80;;;6.40;90.20;;;;;;4994163;28;20463;-73
2021/03/14 03:40:03;;;;;;;14.07;3.28;;;6.40;90.30;;;;;;4993346;28;20037;-73
2021/03/14 03:42:32;;;;;;;11.23;2.25;;;6.30;90.20;;;;;;4993502;28;20057;-74
2021/03/14 03:44:59;;;;;;;17.55;2.97;;;6.30;90.30;;;;;;4994984;28;20390;-74
2021/03/14 03:47:26;;;;;;;16.02;3.50;;;6.30;90.50;;;;;;4992639;28;20084;-73
2021/03/14 03:49:53;;;;;;;11.07;2.80;;;6.30;90.30;;;;;;4993757;28;20109;-73
2021/03/14 03:52:21;;;;;;;13.88;3.10;;;6.30;90.30;;;;;;4994702;28;20022;-74
2021/03/14 03:54:48;;;;;;;12.75;5.20;;;6.40;90.30;;;;;;4993073;28;20026;-74
2021/03/14 03:57:16;;;;;;;10.48;2.53;;;6.30;90.30;;;;;;4993408;28;20080;-74
2021/03/14 03:59:42;;;;;;;18.95;3.55;;;6.30;90.40;;;;;;4994696;28;20042;-74
2021/03/14 04:02:10;;;;;;;17.25;3.10;;;6.30;90.50;;;;;;4992768;28;20068;-73
2021/03/14 04:04:38;;;;;;;11.27;2.58;;;6.30;90.50;;;;;;4994950;28;20459;-74
2021/03/14 04:07:05;;;;;;;10.00;2.63;;;6.30;90.60;;;;;;4994920;28;20015;-73
2021/03/14 04:09:31;;;;;;;14.35;2.78;;;6.30;90.70;;;;;;4993737;28;20030;-73
2021/03/14 04:11:56;;;;;;;11.23;2.80;;;6.30;90.70;;;;;;4993291;28;20109;-74
2021/03/14 04:14:23;;;;;;;6.95;2.40;;;6.40;91.00;;;;;;4994243;28;20117;-73
2021/03/14 04:16:51;;;;;;;12.57;2.67;;;6.30;90.60;;;;;;4992337;28;20053;-73
2021/03/14 04:19:20;;;;;;;14.68;3.75;;;6.30;90.70;;;;;;4994390;28;20101;-74
2021/03/14 04:21:47;;;;;;;17.15;2.97;;;6.10;90.80;;;;;;4993772;28;20042;-73
2021/03/14 04:24:15;;;;;;;15.63;3.58;;;6.10;91.00;;;;;;4993078;28;20128;-73
2021/03/14 04:26:42;;;;;;;11.25;2.95;;;6.10;91.10;;;;;;4993093;28;20065;-73
2021/03/14 04:29:09;;;;;;;13.20;2.90;;;6.10;91.20;;;;;;4993698;28;20109;-73
2021/03/14 04:31:39;;;;;;;13.35;3.13;;;6.10;91.20;;;;;;4994315;28;20057;-73
2021/03/14 04:34:07;;;;;;;15.40;2.95;;;6.00;91.30;;;;;;4994251;28;20041;-74
2021/03/14 04:36:34;;;;;;;11.02;3.03;;;6.00;91.50;;;;;;4993627;28;20467;-73
2021/03/14 04:38:59;;;;;;;16.73;3.20;;;6.00;91.60;;;;;;4992952;28;20042;-73
2021/03/14 04:41:26;;;;;;;20.73;4.57;;;6.10;91.70;;;;;;4993883;28;20053;-73
2021/03/14 04:43:52;;;;;;;15.45;3.38;;;6.10;91.70;;;;;;4993470;28;20120;-73
2021/03/14 04:46:18;;;;;;;13.30;3.13;;;6.10;91.80;;;;;;4993589;28;20062;-73
2021/03/14 04:48:44;;;;;;;10.80;2.72;;;6.20;91.80;;;;;;4989966;28;20477;-72
2021/03/14 04:51:09;;;;;;;14.05;2.83;;;6.30;91.80;;;;;;4993683;28;20032;-73
2021/03/14 04:53:37;;;;;;;13.85;2.65;;;6.30;92.00;;;;;;4993642;28;20037;-74
2021/03/14 04:56:03;;;;;;;14.65;3.10;;;6.50;91.90;;;;;;4993360;28;20559;-73
2021/03/14 04:58:30;;;;;;;11.85;2.50;;;6.50;91.50;;;;;;4993426;28;20028;-73
2021/03/14 05:01:00;;;;;;;12.35;3.45;;;6.50;91.70;;;;;;4993772;28;20030;-74
2021/03/14 05:03:26;;;;;;;12.57;3.83;;;6.50;91.40;;;;;;4992899;28;20043;-73
2021/03/14 05:05:53;;;;;;;14.32;4.28;;;6.50;91.40;;;;;;4993827;28;20557;-74
2021/03/14 05:08:23;;;;;;;15.15;3.10;;;6.50;91.30;;;;;;4992009;28;20034;-73
2021/03/14 05:10:50;;;;;;;12.95;2.67;;;6.50;91.30;;;;;;4991865;28;20077;-73
2021/03/14 05:13:18;;;;;;;9.07;2.90;;;6.50;91.30;;;;;;4991357;28;20040;-74
2021/03/14 05:15:44;;;;;;;13.55;4.03;;;6.50;91.30;;;;;;4993395;28;20077;-74
2021/03/14 05:18:11;;;;;;;8.98;2.83;;;6.50;91.30;;;;;;4992287;28;20054;-73
2021/03/14 05:20:38;;;;;;;13.90;5.22;;;6.50;91.30;;;;;;4993675;28;20452;-73
2021/03/14 05:23:04;;;;;;;12.32;2.58;;;6.50;91.20;;;;;;4993318;28;20045;-73
2021/03/14 05:25:29;;;;;;;10.23;2.35;;;6.40;91.20;;;;;;4992485;28;20068;-72
2021/03/14 05:27:56;;;;;;;9.68;3.05;;;6.40;91.30;;;;;;4993265;28;20379;-73
2021/03/14 05:30:28;;;;;;;9.95;2.47;;;6.50;91.20;;;;;;4992505;28;20102;-73
2021/03/14 05:32:55;;;;;;;11.27;7.43;;;6.40;91.10;;;;;;4991879;28;20026;-73
2021/03/14 05:35:22;;;;;;;11.93;3.08;;;6.50;91.20;;;;;;4991271;28;20359;-73
2021/03/14 05:37:48;;;;;;;19.67;7.45;;;6.50;91.30;;;;;;4992480;28;20022;-73
2021/03/14 05:40:15;;;;;;;9.57;2.72;;;6.40;91.20;;;;;;4992827;28;20026;-73
2021/03/14 05:42:41;;;;;;;7.97;2.60;;;6.40;91.30;;;;;;4992906;28;20463;-72
2021/03/14 05:45:09;;;;;;;6.88;2.90;;;6.30;91.40;;;;;;4992679;28;20022;-73
2021/03/14 05:47:35;;;;;;;12.15;3.47;;;6.30;91.70;;;;;;4993134;28;20022;-73
2021/03/14 05:50:00;;;;;;;7.95;3.20;;;6.20;91.90;;;;;;4993028;28;20031;-73
2021/03/14 05:52:27;;;;;;;10.45;3.50;;;6.20;92.00;;;;;;4991968;28;20037;-72
2021/03/14 05:54:53;;;;;;;6.22;3.30;;;6.20;92.10;;;;;;4992915;28;20034;-73
2021/03/14 05:57:19;;;;;;;9.60;2.97;;;6.10;92.20;;;;;;4992465;28;20226;-72
2021/03/14 05:59:55;;;;;;;10.93;3.13;;;6.20;92.30;;;;;;4992153;28;20018;-73
2021/03/14 06:02:21;;;;;;;7.53;2.72;;;6.20;92.40;;;;;;4992742;28;20018;-72
2021/03/14 06:04:52;;;;;;;8.20;3.08;;;6.30;92.30;;;;;;4991549;28;20081;-73
2021/03/14 06:07:17;;;;;;;5.63;2.95;;;6.30;92.40;;;;;;4992067;28;20014;-74
2021/03/14 06:09:43;;;;;;;7.85;3.28;;;6.30;92.40;;;;;;4991414;28;20367;-73
2021/03/14 06:12:13;;;;;;;12.00;5.70;;;6.30;92.50;;;;;;4992178;28;20034;-72
2021/03/14 06:14:39;;;;;;;11.25;3.45;;;6.30;92.50;;;;;;4990837;28;20121;-73
2021/03/14 06:17:05;;;;;;;7.78;3.80;;;6.30;92.60;;;;;;4992873;28;20043;-73
2021/03/14 06:19:31;;;;;;;6.65;3.22;;;6.30;92.70;;;;;;4991792;28;20073;-73
2021/03/14 06:22:19;;;;;;;7.32;3.38;;;6.30;92.70;;;;;;4991247;28;20077;-73
2021/03/14 06:24:46;;;;;;;8.00;2.95;;;6.30;92.80;;;;;;4991408;28;20030;-72
2021/03/14 06:27:28;;;;;;;8.43;5.65;;;6.30;92.80;;;;;;4994081;28;20026;-73
2021/03/14 06:29:53;;;;;;;5.72;3.58;;;6.30;92.80;;;;;;4995418;28;20049;-73
2021/03/14 06:32:19;;;;;;;5.65;2.95;;;6.30;92.70;;;;;;4996162;28;20026;-73
2021/03/14 06:34:44;;;;;;;4.68;2.65;;;6.30;92.80;;;;;;4995777;28;20046;-73
2021/03/14 06:37:14;;;;;;;3.78;2.35;;;6.30;92.90;;;;;;4996010;28;20029;-73
2021/03/14 06:39:42;;;;;;;4.07;2.92;;;6.30;92.90;;;;;;4996489;28;20030;-73
2021/03/14 06:42:08;;;;;;;5.13;2.90;;;6.40;92.80;;;;;;4994535;28;20388;-73
2021/03/14 06:44:36;;;;;;;7.60;3.42;;;6.40;92.80;;;;;;4996178;28;20022;-73
2021/03/14 06:47:04;;;;;;;6.85;2.97;;;6.40;92.80;;;;;;4996247;28;20015;-74
2021/03/14 06:49:35;;;;;;;6.30;3.03;;;6.40;92.90;;;;;;4995253;28;20022;-73
2021/03/14 06:52:02;;;;;;;5.70;3.73;;;6.50;92.80;;;;;;4995141;28;20056;-73
2021/03/14 06:54:29;;;;;;;4.40;2.53;;;6.60;93.00;;;;;;4994478;28;20809;-73
2021/03/14 06:57:17;;;;;;;5.80;2.78;;;6.70;92.70;;;;;;4995466;28;20390;-73
2021/03/14 06:59:45;;;;;;;6.80;2.95;;;6.70;92.60;;;;;;4996125;28;20026;-73
2021/03/14 07:02:11;;;;;;;7.32;3.10;;;6.70;92.50;;;;;;4993864;28;20019;-73
2021/03/14 07:04:37;;;;;;;5.10;2.90;;;6.80;92.50;;;;;;4996182;28;20395;-74
2021/03/14 07:07:03;;;;;;;5.35;3.00;;;6.80;92.50;;;;;;4994727;28;20024;-73
2021/03/14 07:09:29;;;;;;;4.07;3.15;;;6.80;92.40;;;;;;4994996;28;20118;-73
2021/03/14 07:11:54;;;;;;;8.38;4.85;;;6.80;92.40;;;;;;4995718;28;20037;-72
2021/03/14 07:14:20;;;;;;;4.05;2.95;;;6.80;92.40;;;;;;4994072;28;20489;-73
2021/03/14 07:16:51;;;;;;;5.53;3.30;;;6.80;92.50;;;;;;4995242;28;20043;-73
2021/03/14 07:19:19;;;;;;;5.88;3.95;;;6.90;92.50;;;;;;4995268;28;20030;-72
2021/03/14 07:21:45;;;;;;;7.55;3.75;;;6.90;92.40;;;;;;4994201;28;20026;-72
2021/03/14 07:24:14;;;;;;;5.50;3.88;;;6.90;92.30;;;;;;4995055;28;20026;-73
2021/03/14 07:26:45;;;;;;;6.95;4.45;;;7.00;92.40;;;;;;4995478;28;20022;-73
2021/03/14 07:29:12;;;;;;;7.15;3.78;;;7.00;92.30;;;;;;4995118;28;20026;-73
2021/03/14 07:31:38;;;;;;;7.82;3.47;;;7.00;92.20;;;;;;4994640;28;20049;-73
2021/03/14 07:34:05;;;;;;;7.55;4.00;;;7.00;92.20;;;;;;4995375;28;20546;-73
2021/03/14 07:36:31;;;;;;;5.65;3.47;;;7.00;92.20;;;;;;4994736;28;20030;-73
2021/03/14 07:38:59;;;;;;;7.07;4.38;;;7.00;92.30;;;;;;4994650;28;20022;-72
2021/03/14 07:41:25;;;;;;;8.25;4.10;;;7.10;92.30;;;;;;4994895;28;20541;-73
2021/03/14 07:43:52;;;;;;;8.35;5.35;;;7.20;92.20;;;;;;4995218;28;20536;-72
2021/03/14 07:46:20;;;;;;;8.75;4.18;;;7.20;92.50;;;;;;4994314;28;20025;-72
2021/03/14 07:48:48;;;;;;;8.48;3.92;;;7.30;92.10;;;;;;4995166;28;20030;-73
2021/03/14 07:51:15;;;;;;;10.13;4.68;;;7.30;92.10;;;;;;4993977;28;20030;-72
2021/03/14 07:53:41;;;;;;;8.10;4.13;;;7.40;92.00;;;;;;4994716;28;20034;-73
2021/03/14 07:56:07;;;;;;;8.80;4.65;;;7.50;92.00;;;;;;4995178;28;20088;-73
2021/03/14 07:58:34;;;;;;;10.65;5.70;;;7.60;92.00;;;;;;4994005;28;20534;-73
2021/03/14 08:01:20;;;;;;;14.70;5.80;;;7.60;91.90;;;;;;4993612;28;20030;-73
2021/03/14 08:03:45;;;;;;;7.72;4.97;;;7.70;91.90;;;;;;4994609;28;20019;-72
2021/03/14 08:06:11;;;;;;;11.35;5.20;;;7.80;91.80;;;;;;4993796;28;20109;-73
2021/03/14 08:08:36;;;;;;;8.95;5.07;;;7.90;91.70;;;;;;4994743;28;20019;-73
2021/03/14 08:11:02;;;;;;;11.20;5.70;;;7.90;91.60;;;;;;4994812;28;20058;-73
2021/03/14 08:13:31;;;;;;;12.02;6.03;;;7.90;91.60;;;;;;4993501;28;20517;-73
2021/03/14 08:16:04;;;;;;;11.25;5.57;;;8.00;91.70;;;;;;4994286;28;20029;-73
2021/03/14 08:18:41;;;;;;;12.75;5.53;;;8.10;91.60;;;;;;4994255;28;20150;-73
2021/03/14 08:21:27;;;;;;;16.20;6.25;;;8.10;91.50;;;;;;4992603;28;20029;-73
2021/03/14 08:23:54;;;;;;;11.45;5.45;;;8.20;91.60;;;;;;4994280;28;20027;-73
2021/03/14 08:26:29;;;;;;;11.55;5.47;;;8.20;91.60;;;;;;4991967;28;20030;-72
2021/03/14 08:29:09;;;;;;;10.70;5.45;;;8.30;91.60;;;;;;4994280;28;20029;-73
2021/03/14 08:31:45;;;;;;;12.30;6.50;;;8.30;91.50;;;;;;4993130;28;20018;-74
2021/03/14 08:34:17;;;;;;;12.13;5.43;;;8.30;91.50;;;;;;4993228;28;20037;-73
2021/03/14 08:36:43;;;;;;;;;;;8.40;91.40;;;;;;4994564;28;20018;-74
2021/03/14 08:39:27;;;;;;;12.07;5.30;;;8.40;91.40;;;;;;4992510;28;19964;-73
2021/03/14 08:41:56;;;;;;;8.10;4.88;;;8.40;91.20;;;;;;4992176;28;20044;-73
2021/03/14 08:44:39;;;;;;;10.35;5.13;;;8.50;91.30;;;;;;4992381;28;20434;-73
2021/03/14 08:47:07;;;;;;;10.32;6.07;;;8.70;91.30;;;;;;4994140;28;20073;-72
2021/03/14 08:49:34;;;;;;;11.52;5.43;;;8.80;91.20;;;;;;4992210;28;20101;-73
2021/03/14 08:52:00;;;;;;;10.73;5.72;;;9.00;91.00;;;;;;4993744;28;20110;-73
2021/03/14 08:54:33;;;;;;;10.95;5.22;;;9.10;90.80;;;;;;4992843;28;20122;-72
2021/03/14 08:57:02;;;;;;;12.52;5.20;;;9.20;90.50;;;;;;4992547;28;20061;-73
2021/03/14 08:59:28;;;;;;;14.20;6.22;;;9.20;90.50;;;;;;4993499;28;20056;-73
2021/03/14 09:01:57;;;;;;;13.50;5.35;;;9.20;90.40;;;;;;4991637;28;20015;-73
2021/03/14 09:04:31;;;;;;;10.48;4.53;;;9.20;90.30;;;;;;4993523;28;20076;-73
2021/03/14 09:07:10;;;;;;;12.98;5.07;;;9.20;90.30;;;;;;4992419;28;20046;-74
2021/03/14 09:09:38;;;;;;;13.15;4.90;;;9.20;90.20;;;;;;4993060;28;20022;-73
2021/03/14 09:12:06;;;;;;;14.75;5.20;;;9.20;90.20;;;;;;4993592;28;20130;-73
2021/03/14 09:14:45;;;;;;;13.27;4.93;;;9.20;90.30;;;;;;4993092;28;20042;-73
2021/03/14 09:17:19;;;;;;;15.20;4.78;;;9.20;90.30;;;;;;4992312;28;20117;-73
2021/03/14 09:19:55;;;;;;;10.88;4.60;;;9.20;90.10;;;;;;4993423;28;20410;-73
2021/03/14 09:22:26;;;;;;;12.50;4.53;;;9.20;89.90;;;;;;4991339;28;20105;-74
2021/03/14 09:24:59;;;;;;;13.15;4.05;;;9.20;89.90;;;;;;4993287;28;20053;-74
2021/03/14 09:27:34;;;;;;;17.10;4.80;;;9.30;90.00;;;;;;4991558;28;20491;-73
2021/03/14 09:30:10;;;;;;;11.88;3.88;;;9.40;89.70;;;;;;4991341;28;20391;-73
2021/03/14 09:32:43;;;;;;;8.63;3.83;;;9.50;89.20;;;;;;4993209;28;20032;-73
2021/03/14 09:35:14;;;;;;;11.68;4.03;;;9.60;89.10;;;;;;4992827;28;20043;-73
2021/03/14 09:37:41;;;;;;;10.88;3.72;;;9.60;88.80;;;;;;4991214;28;20022;-73
2021/03/14 09:40:14;;;;;;;10.68;4.13;;;9.80;88.50;;;;;;4991911;28;20027;-73
2021/03/14 09:42:42;;;;;;;10.80;4.10;;;9.90;87.80;;;;;;4993051;28;20034;-73
2021/03/14 09:45:12;;;;;;;8.43;3.22;;;9.90;87.30;;;;;;4991156;28;20034;-72
2021/03/14 09:48:06;;;;;;;13.10;3.65;;;9.90;86.30;;;;;;4992993;28;20040;-72
2021/03/14 09:50:42;;;;;;;9.00;3.83;;;9.90;86.10;;;;;;4991995;28;20034;-73
2021/03/14 09:53:09;;;;;;;11.50;4.95;;;9.90;86.00;;;;;;4992850;28;20030;-73
2021/03/14 09:55:49;;;;;;;10.95;3.20;;;9.90;85.50;;;;;;4993204;28;20483;-73
2021/03/14 09:58:17;;;;;;;10.35;3.53;;;9.90;85.60;;;;;;4992021;28;20117;-73
2021/03/14 10:00:43;;;;;;;10.00;3.50;;;10.00;85.10;;;;;;4992665;28;20031;-73
2021/03/14 10:03:14;;;;;;;10.43;3.50;;;10.00;84.90;;;;;;4992350;28;20192;-73
2021/03/14 10:06:11;;;;;;;8.80;3.20;;;10.10;84.90;;;;;;4990888;28;20121;-73
2021/03/14 10:08:38;;;;;;;7.85;3.47;;;10.20;84.50;;;;;;4980117;28;20057;-73
2021/03/14 10:11:06;;;;;;;10.13;3.33;;;10.40;84.20;;;;;;4991440;28;20023;-72
2021/03/14 10:13:33;;;;;;;10.88;3.47;;;10.60;83.70;;;;;;4991505;28;20023;-73
2021/03/14 10:16:01;;;;;;;11.20;3.00;;;10.60;82.30;;;;;;4992971;28;20097;-73
2021/03/14 10:18:28;;;;;;;14.40;3.33;;;10.60;81.60;;;;;;4992326;28;20379;-73
2021/03/14 10:21:20;;;;;;;8.77;3.20;;;10.60;81.40;;;;;;4990715;28;20050;-73
2021/03/14 10:23:47;;;;;;;9.15;2.85;;;10.60;81.60;;;;;;4991347;28;20019;-73
2021/03/14 10:26:14;;;;;;;10.68;3.17;;;10.70;80.60;;;;;;4992038;28;20033;-73
2021/03/14 10:28:44;;;;;;;8.80;2.80;;;10.60;80.20;;;;;;4992569;28;20077;-72
2021/03/14 10:31:11;;;;;;;8.70;2.70;;;10.50;80.20;;;;;;4992374;28;20482;-72
2021/03/14 10:33:45;;;;;;;11.40;4.40;;;10.50;80.50;;;;;;4990320;28;20121;-74
2021/03/14 10:36:16;;;;;;;8.93;3.92;;;10.40;80.80;;;;;;4992180;28;20055;-73
2021/03/14 10:38:42;;;;;;;7.30;2.70;;;10.30;80.20;;;;;;4992463;28;20030;-73
2021/03/14 10:41:16;;;;;;;4.68;1.70;;;10.10;79.60;;;;;;4991936;28;20436;-73
2021/03/14 10:43:50;;;;;;;3.35;1.42;;;9.80;79.60;;;;;;4991229;28;20125;-73
2021/03/14 10:46:35;;;;;;;4.35;1.30;;;9.70;79.60;;;;;;4992290;28;20021;-72
2021/03/14 10:49:13;;;;;;;2.58;1.50;;;9.60;79.40;;;;;;4990595;28;20075;-73
2021/03/14 10:51:40;;;;;;;4.47;1.67;;;9.30;80.60;;;;;;4992394;28;20463;-72
2021/03/14 10:54:10;;;;;;;3.60;1.70;;;9.20;81.80;;;;;;4991779;28;20046;-73
2021/03/14 10:56:38;;;;;;;5.90;1.90;;;9.10;83.20;;;;;;4992507;28;20054;-73
2021/03/14 10:59:21;;;;;;;7.00;2.35;;;9.10;84.80;;;;;;4992513;28;20038;-73
2021/03/14 11:01:48;;;;;;;7.63;2.58;;;9.20;85.00;;;;;;4991574;28;20018;-73
2021/03/14 11:04:14;;;;;;;5.65;2.58;;;9.50;85.30;;;;;;4992315;28;20092;-72
2021/03/14 11:06:40;;;;;;;9.05;2.47;;;9.80;85.90;;;;;;4992412;28;20030;-73
2021/03/14 11:09:09;;;;;;;6.68;3.55;;;9.90;84.90;;;;;;4991776;28;20078;-73
2021/03/14 11:11:41;;;;;;;5.60;2.05;;;10.00;84.90;;;;;;4992030;28;20026;-72
2021/03/14 11:14:28;;;;;;;8.38;3.00;;;9.90;84.20;;;;;;4995741;28;20038;-73
2021/03/14 11:17:08;;;;;;;6.68;2.80;;;9.80;84.70;;;;;;4995491;28;20379;-73
2021/03/14 11:19:35;;;;;;;9.65;2.45;;;9.80;84.80;;;;;;5012714;28;20041;-73
2021/03/14 11:22:01;;;;;;;8.05;3.03;;;9.90;85.20;;;;;;5006154;28;20060;-75
2021/03/14 11:24:27;;;;;;;4.38;1.90;;;10.10;85.50;;;;;;4993210;28;20062;-72
2021/03/14 11:26:52;;;;;;;9.07;2.20;;;10.30;84.90;;;;;;4977216;28;20034;-73
2021/03/14 11:29:18;;;;;;;9.18;2.00;;;10.50;83.70;;;;;;4994521;28;20085;-73
2021/03/14 11:31:43;;;;;;;4.90;1.75;;;10.80;83.40;;;;;;4994411;28;20019;-76
2021/03/14 11:34:09;;;;;;;6.10;1.88;;;11.00;82.50;;;;;;4991107;28;20050;-77
2021/03/14 11:36:35;;;;;;;5.57;1.92;;;11.10;81.60;;;;;;5000140;28;20022;-73
2021/03/14 11:39:00;;;;;;;4.63;1.80;;;11.20;81.50;;;;;;5007732;28;20498;-73
2021/03/14 11:41:26;;;;;;;5.63;2.20;;;11.30;80.90;;;;;;5010752;28;20018;-77
2021/03/14 11:43:52;;;;;;;6.45;1.95;;;11.50;80.30;;;;;;5012466;28;20038;-80
2021/03/14 11:46:17;;;;;;;4.63;1.77;;;11.70;79.50;;;;;;5014196;28;20022;-78
2021/03/14 11:48:43;;;;;;;3.67;1.40;;;11.70;78.90;;;;;;5012726;28;20030;-78
2021/03/14 11:51:08;;;;;;;8.63;2.47;;;11.60;78.80;;;;;;5000610;28;20486;-74
2021/03/14 11:53:34;;;;;;;5.38;1.48;;;11.60;79.20;;;;;;5011316;28;20038;-75
2021/03/14 11:56:00;;;;;;;4.82;1.70;;;11.50;78.80;;;;;;5014297;28;20030;-75
2021/03/14 11:58:25;;;;;;;11.90;2.72;;;11.40;77.30;;;;;;5003985;28;20109;-74
2021/03/14 12:00:51;;;;;;;9.25;2.38;;;11.40;77.20;;;;;;4993016;28;20156;-77
2021/03/14 12:03:17;;;;;;;6.43;2.25;;;11.40;77.40;;;;;;4993854;28;20038;-73
2021/03/14 12:05:42;;;;;;;7.43;2.25;;;11.50;76.90;;;;;;4992036;28;20731;-74
2021/03/14 12:08:09;;;;;;;6.13;1.55;;;11.60;75.80;;;;;;4992502;28;20441;-74
2021/03/14 12:10:35;;;;;;;6.25;1.67;;;11.70;74.40;;;;;;4993027;28;20105;-73
2021/03/14 12:13:01;;;;;;;5.53;2.00;;;11.70;73.20;;;;;;4992015;28;20460;-74
2021/03/14 12:15:26;;;;;;;3.90;1.67;;;11.70;72.70;;;;;;4994145;28;20026;-73
2021/03/14 12:17:52;;;;;;;7.28;2.70;;;11.80;72.70;;;;;;4992661;28;20048;-72
2021/03/14 12:20:17;;;;;;;5.15;1.65;;;11.90;71.80;;;;;;4991375;28;20422;-72
2021/03/14 12:22:43;;;;;;;7.22;1.85;;;12.00;70.50;;;;;;4985602;28;20062;-77
2021/03/14 12:25:09;;;;;;;6.88;1.80;;;12.00;70.90;;;;;;4992285;28;20434;-71
2021/03/14 12:27:34;;;;;;;4.68;1.42;;;11.90;70.90;;;;;;4993748;28;20061;-73
2021/03/14 12:30:00;;;;;;;5.38;2.10;;;11.90;71.30;;;;;;4994273;28;20475;-72
2021/03/14 12:32:25;;;;;;;6.80;2.00;;;11.80;71.60;;;;;;4993017;28;20025;-71
2021/03/14 12:34:51;;;;;;;6.80;1.77;;;11.60;71.40;;;;;;4993966;28;20045;-72
2021/03/14 12:37:16;;;;;;;6.47;2.80;;;11.50;71.50;;;;;;4993982;28;20022;-73
2021/03/14 12:39:42;;;;;;;8.02;2.70;;;11.40;72.10;;;;;;4992322;28;20026;-72
2021/03/14 12:42:08;;;;;;;6.15;1.77;;;11.30;72.60;;;;;;4993825;28;20110;-72
2021/03/14 12:44:33;;;;;;;6.85;1.83;;;11.20;73.10;;;;;;4994078;28;20034;-72
2021/03/14 12:46:59;;;;;;;6.28;2.55;;;11.20;73.30;;;;;;4993117;28;20026;-73
2021/03/14 12:49:25;;;;;;;10.95;2.03;;;11.10;73.00;;;;;;4992171;28;20030;-72
2021/03/14 12:51:50;;;;;;;8.65;2.47;;;11.00;73.50;;;;;;4992691;28;20411;-72
2021/03/14 12:54:16;;;;;;;16.17;6.78;;;10.90;74.20;;;;;;4992899;28;20386;-72
2021/03/14 12:56:42;;;;;;;5.93;1.95;;;11.00;74.60;;;;;;4992439;28;20497;-72